sensor_id;sensor_type;location;lat;lon;timestamp;P1;durP1;ratioP1;P2;durP2;ratioP2
2542;SDS011;1116;51.502;7.414;2022-12-07T00:00:26;39.33;;;29.10;;
2542;SDS011;1116;51.502;7.414;2022-12-07T00:02:59;41.53;;;29.07;;
2542;SDS011;1116;51.502;7.414;2022-12-07T00:05:30;45.10;;;31.07;;
2542;SDS011;1116;51.502;7.414;2022-12-07T00:08:01;41.20;;;29.53;;
2542;SDS011;1116;51.502;7.414;2022-12-07T00:10:32;37.97;;;27.87;;
2542;SDS011;1116;51.502;7.414;2022-12-07T00:13:03;46.67;;;30.90;;
2542;SDS011;1116;51.502;7.414;2022-12-07T00:15:37;38.90;;;28.10;;
2542;SDS011;1116;51.502;7.414;2022-12-07T00:18:07;40.13;;;29.57;;
2542;SDS011;1116;51.502;7.414;2022-12-07T00:20:38;40.00;;;26.97;;
2542;SDS011;1116;51.502;7.414;2022-12-07T00:23:10;42.57;;;28.37;;
2542;SDS011;1116;51.502;7.414;2022-12-07T00:25:41;41.63;;;27.13;;
2542;SDS011;1116;51.502;7.414;2022-12-07T00:28:11;38.47;;;26.97;;
2542;SDS011;1116;51.502;7.414;2022-12-07T00:30:48;43.97;;;28.00;;
2542;SDS011;1116;51.502;7.414;2022-12-07T00:33:18;36.97;;;27.20;;
2542;SDS011;1116;51.502;7.414;2022-12-07T00:35:54;41.47;;;28.97;;
2542;SDS011;1116;51.502;7.414;2022-12-07T00:38:28;40.70;;;28.67;;
2542;SDS011;1116;51.502;7.414;2022-12-07T00:41:02;41.90;;;29.03;;
2542;SDS011;1116;51.502;7.414;2022-12-07T00:43:35;42.90;;;29.70;;
2542;SDS011;1116;51.502;7.414;2022-12-07T00:46:08;44.37;;;29.27;;
2542;SDS011;1116;51.502;7.414;2022-12-07T00:48:41;44.10;;;28.93;;
2542;SDS011;1116;51.502;7.414;2022-12-07T00:51:13;42.83;;;29.67;;
2542;SDS011;1116;51.502;7.414;2022-12-07T00:53:45;41.13;;;28.37;;
2542;SDS011;1116;51.502;7.414;2022-12-07T00:56:17;41.83;;;27.40;;
2542;SDS011;1116;51.502;7.414;2022-12-07T00:58:52;36.17;;;27.00;;
2542;SDS011;1116;51.502;7.414;2022-12-07T01:01:27;42.27;;;27.37;;
2542;SDS011;1116;51.502;7.414;2022-12-07T01:04:02;38.80;;;27.70;;
2542;SDS011;1116;51.502;7.414;2022-12-07T01:06:33;36.60;;;26.17;;
2542;SDS011;1116;51.502;7.414;2022-12-07T01:09:05;38.10;;;27.07;;
2542;SDS011;1116;51.502;7.414;2022-12-07T01:11:36;34.90;;;26.30;;
2542;SDS011;1116;51.502;7.414;2022-12-07T01:14:08;39.97;;;27.10;;
2542;SDS011;1116;51.502;7.414;2022-12-07T01:16:43;40.67;;;27.33;;
2542;SDS011;1116;51.502;7.414;2022-12-07T01:19:14;40.47;;;28.40;;
2542;SDS011;1116;51.502;7.414;2022-12-07T01:21:45;36.90;;;27.73;;
2542;SDS011;1116;51.502;7.414;2022-12-07T01:24:15;39.33;;;28.10;;
2542;SDS011;1116;51.502;7.414;2022-12-07T01:26:48;38.57;;;26.53;;
2542;SDS011;1116;51.502;7.414;2022-12-07T01:29:19;40.73;;;28.40;;
2542;SDS011;1116;51.502;7.414;2022-12-07T01:31:52;40.70;;;28.70;;
2542;SDS011;1116;51.502;7.414;2022-12-07T01:34:23;40.17;;;28.07;;
2542;SDS011;1116;51.502;7.414;2022-12-07T01:36:54;38.17;;;27.40;;
2542;SDS011;1116;51.502;7.414;2022-12-07T01:39:25;41.10;;;29.37;;
2542;SDS011;1116;51.502;7.414;2022-12-07T01:41:57;42.40;;;29.43;;
2542;SDS011;1116;51.502;7.414;2022-12-07T01:44:31;40.00;;;27.77;;
2542;SDS011;1116;51.502;7.414;2022-12-07T01:47:04;39.33;;;28.40;;
2542;SDS011;1116;51.502;7.414;2022-12-07T01:49:39;38.07;;;27.90;;
2542;SDS011;1116;51.502;7.414;2022-12-07T01:52:14;41.17;;;28.93;;
2542;SDS011;1116;51.502;7.414;2022-12-07T01:54:59;42.30;;;28.90;;
2542;SDS011;1116;51.502;7.414;2022-12-07T01:57:32;39.90;;;27.57;;
2542;SDS011;1116;51.502;7.414;2022-12-07T02:00:12;44.23;;;29.40;;
2542;SDS011;1116;51.502;7.414;2022-12-07T02:02:48;38.50;;;28.80;;
2542;SDS011;1116;51.502;7.414;2022-12-07T02:05:24;42.43;;;28.50;;
2542;SDS011;1116;51.502;7.414;2022-12-07T02:07:55;38.63;;;28.37;;
2542;SDS011;1116;51.502;7.414;2022-12-07T02:10:31;40.20;;;28.27;;
2542;SDS011;1116;51.502;7.414;2022-12-07T02:13:03;39.10;;;28.47;;
2542;SDS011;1116;51.502;7.414;2022-12-07T02:15:46;40.87;;;27.37;;
2542;SDS011;1116;51.502;7.414;2022-12-07T02:18:32;38.90;;;27.00;;
2542;SDS011;1116;51.502;7.414;2022-12-07T02:21:20;39.27;;;27.73;;
2542;SDS011;1116;51.502;7.414;2022-12-07T02:24:07;38.70;;;27.30;;
2542;SDS011;1116;51.502;7.414;2022-12-07T02:26:54;39.07;;;27.80;;
2542;SDS011;1116;51.502;7.414;2022-12-07T02:29:43;35.87;;;26.80;;
2542;SDS011;1116;51.502;7.414;2022-12-07T02:32:18;38.50;;;27.30;;
2542;SDS011;1116;51.502;7.414;2022-12-07T02:34:54;36.23;;;28.20;;
2542;SDS011;1116;51.502;7.414;2022-12-07T02:37:32;36.87;;;26.50;;
2542;SDS011;1116;51.502;7.414;2022-12-07T02:40:11;36.53;;;26.53;;
2542;SDS011;1116;51.502;7.414;2022-12-07T02:42:49;39.77;;;26.73;;
2542;SDS011;1116;51.502;7.414;2022-12-07T02:45:27;37.77;;;26.10;;
2542;SDS011;1116;51.502;7.414;2022-12-07T02:48:01;37.70;;;27.07;;
2542;SDS011;1116;51.502;7.414;2022-12-07T02:50:34;34.97;;;26.17;;
2542;SDS011;1116;51.502;7.414;2022-12-07T02:53:04;34.10;;;24.73;;
2542;SDS011;1116;51.502;7.414;2022-12-07T02:55:37;36.20;;;25.60;;
2542;SDS011;1116;51.502;7.414;2022-12-07T02:58:15;32.13;;;24.20;;
2542;SDS011;1116;51.502;7.414;2022-12-07T03:01:02;39.83;;;26.83;;
2542;SDS011;1116;51.502;7.414;2022-12-07T03:03:42;33.67;;;25.43;;
2542;SDS011;1116;51.502;7.414;2022-12-07T03:06:20;34.80;;;25.00;;
2542;SDS011;1116;51.502;7.414;2022-12-07T03:08:56;34.20;;;25.27;;
2542;SDS011;1116;51.502;7.414;2022-12-07T03:11:33;35.73;;;25.90;;
2542;SDS011;1116;51.502;7.414;2022-12-07T03:14:13;34.87;;;24.37;;
2542;SDS011;1116;51.502;7.414;2022-12-07T03:16:51;31.73;;;25.27;;
2542;SDS011;1116;51.502;7.414;2022-12-07T03:19:25;37.03;;;25.57;;
2542;SDS011;1116;51.502;7.414;2022-12-07T03:21:57;35.50;;;25.00;;
2542;SDS011;1116;51.502;7.414;2022-12-07T03:24:34;32.90;;;25.07;;
2542;SDS011;1116;51.502;7.414;2022-12-07T03:27:08;37.00;;;26.53;;
2542;SDS011;1116;51.502;7.414;2022-12-07T03:29:43;36.37;;;24.97;;
2542;SDS011;1116;51.502;7.414;2022-12-07T03:32:25;33.93;;;24.03;;
2542;SDS011;1116;51.502;7.414;2022-12-07T03:35:01;33.97;;;23.63;;
2542;SDS011;1116;51.502;7.414;2022-12-07T03:37:36;38.50;;;25.87;;
2542;SDS011;1116;51.502;7.414;2022-12-07T03:40:12;37.47;;;26.40;;
2542;SDS011;1116;51.502;7.414;2022-12-07T03:42:47;43.17;;;27.17;;
2542;SDS011;1116;51.502;7.414;2022-12-07T03:45:20;40.20;;;25.90;;
2542;SDS011;1116;51.502;7.414;2022-12-07T03:48:02;44.57;;;27.50;;
2542;SDS011;1116;51.502;7.414;2022-12-07T03:50:41;38.50;;;26.13;;
2542;SDS011;1116;51.502;7.414;2022-12-07T03:53:18;38.77;;;26.50;;
2542;SDS011;1116;51.502;7.414;2022-12-07T03:55:51;39.80;;;27.07;;
2542;SDS011;1116;51.502;7.414;2022-12-07T03:58:25;39.70;;;26.03;;
2542;SDS011;1116;51.502;7.414;2022-12-07T04:00:56;38.43;;;26.33;;
2542;SDS011;1116;51.502;7.414;2022-12-07T04:03:30;37.10;;;24.87;;
2542;SDS011;1116;51.502;7.414;2022-12-07T04:06:01;38.50;;;25.60;;
2542;SDS011;1116;51.502;7.414;2022-12-07T04:08:32;43.10;;;26.57;;
2542;SDS011;1116;51.502;7.414;2022-12-07T04:11:02;41.30;;;25.60;;
2542;SDS011;1116;51.502;7.414;2022-12-07T04:13:33;43.53;;;25.10;;
2542;SDS011;1116;51.502;7.414;2022-12-07T04:16:24;38.77;;;25.50;;
2542;SDS011;1116;51.502;7.414;2022-12-07T04:18:58;35.87;;;24.60;;
2542;SDS011;1116;51.502;7.414;2022-12-07T04:21:31;40.63;;;26.00;;
2542;SDS011;1116;51.502;7.414;2022-12-07T04:24:03;42.63;;;27.00;;
2542;SDS011;1116;51.502;7.414;2022-12-07T04:26:35;40.53;;;27.90;;
2542;SDS011;1116;51.502;7.414;2022-12-07T04:29:10;41.90;;;27.60;;
2542;SDS011;1116;51.502;7.414;2022-12-07T04:31:41;43.80;;;26.60;;
2542;SDS011;1116;51.502;7.414;2022-12-07T04:34:16;41.37;;;25.60;;
2542;SDS011;1116;51.502;7.414;2022-12-07T04:36:50;37.40;;;25.47;;
2542;SDS011;1116;51.502;7.414;2022-12-07T04:39:22;38.27;;;26.13;;
2542;SDS011;1116;51.502;7.414;2022-12-07T04:41:54;39.57;;;24.73;;
2542;SDS011;1116;51.502;7.414;2022-12-07T04:44:27;32.60;;;23.07;;
2542;SDS011;1116;51.502;7.414;2022-12-07T04:46:58;32.63;;;21.70;;
2542;SDS011;1116;51.502;7.414;2022-12-07T04:49:32;31.93;;;23.10;;
2542;SDS011;1116;51.502;7.414;2022-12-07T04:52:03;36.93;;;21.87;;
2542;SDS011;1116;51.502;7.414;2022-12-07T04:54:34;30.60;;;22.10;;
2542;SDS011;1116;51.502;7.414;2022-12-07T04:57:05;35.60;;;23.37;;
2542;SDS011;1116;51.502;7.414;2022-12-07T04:59:36;36.13;;;23.47;;
2542;SDS011;1116;51.502;7.414;2022-12-07T05:02:12;36.63;;;23.73;;
2542;SDS011;1116;51.502;7.414;2022-12-07T05:04:45;36.27;;;23.63;;
2542;SDS011;1116;51.502;7.414;2022-12-07T05:07:16;29.80;;;21.37;;
2542;SDS011;1116;51.502;7.414;2022-12-07T05:09:47;33.17;;;22.13;;
2542;SDS011;1116;51.502;7.414;2022-12-07T05:12:18;35.07;;;21.43;;
2542;SDS011;1116;51.502;7.414;2022-12-07T05:14:50;37.03;;;22.43;;
2542;SDS011;1116;51.502;7.414;2022-12-07T05:17:20;32.60;;;22.83;;
2542;SDS011;1116;51.502;7.414;2022-12-07T05:19:56;34.10;;;22.80;;
2542;SDS011;1116;51.502;7.414;2022-12-07T05:22:27;34.00;;;21.20;;
2542;SDS011;1116;51.502;7.414;2022-12-07T05:25:01;30.50;;;21.00;;
2542;SDS011;1116;51.502;7.414;2022-12-07T05:27:31;30.40;;;21.30;;
2542;SDS011;1116;51.502;7.414;2022-12-07T05:30:03;32.53;;;22.93;;
2542;SDS011;1116;51.502;7.414;2022-12-07T05:32:38;31.83;;;22.43;;
2542;SDS011;1116;51.502;7.414;2022-12-07T05:35:14;36.40;;;22.27;;
2542;SDS011;1116;51.502;7.414;2022-12-07T05:37:46;34.27;;;22.13;;
2542;SDS011;1116;51.502;7.414;2022-12-07T05:40:17;34.30;;;22.90;;
2542;SDS011;1116;51.502;7.414;2022-12-07T05:42:48;33.47;;;22.97;;
2542;SDS011;1116;51.502;7.414;2022-12-07T05:45:19;32.87;;;22.70;;
2542;SDS011;1116;51.502;7.414;2022-12-07T05:47:50;31.70;;;22.20;;
2542;SDS011;1116;51.502;7.414;2022-12-07T05:50:25;37.20;;;23.07;;
2542;SDS011;1116;51.502;7.414;2022-12-07T05:52:56;35.00;;;22.33;;
2542;SDS011;1116;51.502;7.414;2022-12-07T05:55:27;35.90;;;24.43;;
2542;SDS011;1116;51.502;7.414;2022-12-07T05:57:58;34.10;;;22.47;;
2542;SDS011;1116;51.502;7.414;2022-12-07T06:00:41;35.20;;;21.83;;
2542;SDS011;1116;51.502;7.414;2022-12-07T06:03:17;38.50;;;22.03;;
2542;SDS011;1116;51.502;7.414;2022-12-07T06:05:52;35.60;;;20.40;;
2542;SDS011;1116;51.502;7.414;2022-12-07T06:08:23;31.77;;;21.93;;
2542;SDS011;1116;51.502;7.414;2022-12-07T06:10:54;38.03;;;23.37;;
2542;SDS011;1116;51.502;7.414;2022-12-07T06:13:39;29.73;;;21.87;;
2542;SDS011;1116;51.502;7.414;2022-12-07T06:16:13;28.07;;;19.93;;
2542;SDS011;1116;51.502;7.414;2022-12-07T06:18:46;33.00;;;21.10;;
2542;SDS011;1116;51.502;7.414;2022-12-07T06:21:20;31.17;;;19.87;;
2542;SDS011;1116;51.502;7.414;2022-12-07T06:23:53;27.30;;;19.17;;
2542;SDS011;1116;51.502;7.414;2022-12-07T06:26:23;29.80;;;19.73;;
2542;SDS011;1116;51.502;7.414;2022-12-07T06:28:54;34.97;;;21.73;;
2542;SDS011;1116;51.502;7.414;2022-12-07T06:31:25;42.70;;;21.83;;
2542;SDS011;1116;51.502;7.414;2022-12-07T06:33:59;43.53;;;26.83;;
2542;SDS011;1116;51.502;7.414;2022-12-07T06:36:34;47.27;;;24.47;;
2542;SDS011;1116;51.502;7.414;2022-12-07T06:39:05;29.47;;;20.87;;
2542;SDS011;1116;51.502;7.414;2022-12-07T06:41:36;31.67;;;20.17;;
2542;SDS011;1116;51.502;7.414;2022-12-07T06:44:09;30.87;;;19.87;;
2542;SDS011;1116;51.502;7.414;2022-12-07T06:46:41;32.43;;;20.30;;
2542;SDS011;1116;51.502;7.414;2022-12-07T06:49:13;30.57;;;20.67;;
2542;SDS011;1116;51.502;7.414;2022-12-07T06:51:46;31.23;;;20.70;;
2542;SDS011;1116;51.502;7.414;2022-12-07T06:54:18;35.87;;;21.03;;
2542;SDS011;1116;51.502;7.414;2022-12-07T06:56:54;36.37;;;22.33;;
2542;SDS011;1116;51.502;7.414;2022-12-07T06:59:25;32.77;;;20.53;;
2542;SDS011;1116;51.502;7.414;2022-12-07T07:01:58;34.33;;;21.40;;
2542;SDS011;1116;51.502;7.414;2022-12-07T07:04:29;37.13;;;22.10;;
2542;SDS011;1116;51.502;7.414;2022-12-07T07:07:03;27.80;;;20.10;;
2542;SDS011;1116;51.502;7.414;2022-12-07T07:09:34;41.43;;;20.27;;
2542;SDS011;1116;51.502;7.414;2022-12-07T07:12:05;29.90;;;20.03;;
2542;SDS011;1116;51.502;7.414;2022-12-07T07:14:36;26.10;;;18.27;;
2542;SDS011;1116;51.502;7.414;2022-12-07T07:17:07;26.80;;;18.07;;
2542;SDS011;1116;51.502;7.414;2022-12-07T07:19:38;26.20;;;17.43;;
2542;SDS011;1116;51.502;7.414;2022-12-07T07:22:11;33.43;;;16.20;;
2542;SDS011;1116;51.502;7.414;2022-12-07T07:24:43;22.37;;;16.67;;
2542;SDS011;1116;51.502;7.414;2022-12-07T07:27:14;27.20;;;16.67;;
2542;SDS011;1116;51.502;7.414;2022-12-07T07:29:45;25.57;;;16.77;;
2542;SDS011;1116;51.502;7.414;2022-12-07T07:32:16;24.73;;;15.73;;
2542;SDS011;1116;51.502;7.414;2022-12-07T07:34:46;24.67;;;17.20;;
2542;SDS011;1116;51.502;7.414;2022-12-07T07:37:20;28.07;;;15.67;;
2542;SDS011;1116;51.502;7.414;2022-12-07T07:39:51;24.47;;;16.43;;
2542;SDS011;1116;51.502;7.414;2022-12-07T07:42:23;25.33;;;16.13;;
2542;SDS011;1116;51.502;7.414;2022-12-07T07:44:54;23.93;;;15.90;;
2542;SDS011;1116;51.502;7.414;2022-12-07T07:47:27;22.03;;;14.77;;
2542;SDS011;1116;51.502;7.414;2022-12-07T07:49:58;25.27;;;15.30;;
2542;SDS011;1116;51.502;7.414;2022-12-07T07:55:06;20.43;;;14.33;;
2542;SDS011;1116;51.502;7.414;2022-12-07T07:57:38;27.00;;;16.23;;
2542;SDS011;1116;51.502;7.414;2022-12-07T08:00:16;23.17;;;15.30;;
2542;SDS011;1116;51.502;7.414;2022-12-07T08:02:48;22.10;;;15.67;;
2542;SDS011;1116;51.502;7.414;2022-12-07T08:05:19;20.50;;;15.00;;
2542;SDS011;1116;51.502;7.414;2022-12-07T08:07:52;27.13;;;14.60;;
2542;SDS011;1116;51.502;7.414;2022-12-07T08:10:23;23.50;;;14.83;;
2542;SDS011;1116;51.502;7.414;2022-12-07T08:12:54;26.27;;;15.67;;
2542;SDS011;1116;51.502;7.414;2022-12-07T08:15:38;21.27;;;14.97;;
2542;SDS011;1116;51.502;7.414;2022-12-07T08:18:13;23.83;;;13.83;;
2542;SDS011;1116;51.502;7.414;2022-12-07T08:20:45;23.27;;;15.30;;
2542;SDS011;1116;51.502;7.414;2022-12-07T08:23:19;27.10;;;14.80;;
2542;SDS011;1116;51.502;7.414;2022-12-07T08:26:04;22.17;;;13.77;;
2542;SDS011;1116;51.502;7.414;2022-12-07T08:28:36;22.97;;;14.40;;
2542;SDS011;1116;51.502;7.414;2022-12-07T08:31:08;21.43;;;13.60;;
2542;SDS011;1116;51.502;7.414;2022-12-07T08:33:41;23.17;;;12.93;;
2542;SDS011;1116;51.502;7.414;2022-12-07T08:36:12;17.17;;;12.30;;
2542;SDS011;1116;51.502;7.414;2022-12-07T08:38:46;18.90;;;11.97;;
2542;SDS011;1116;51.502;7.414;2022-12-07T08:41:37;17.87;;;12.10;;
2542;SDS011;1116;51.502;7.414;2022-12-07T08:44:08;22.07;;;11.73;;
2542;SDS011;1116;51.502;7.414;2022-12-07T08:46:39;21.60;;;11.20;;
2542;SDS011;1116;51.502;7.414;2022-12-07T08:49:16;14.60;;;10.07;;
2542;SDS011;1116;51.502;7.414;2022-12-07T08:51:49;15.10;;;9.80;;
2542;SDS011;1116;51.502;7.414;2022-12-07T08:54:23;16.70;;;10.67;;
2542;SDS011;1116;51.502;7.414;2022-12-07T08:56:54;14.33;;;10.00;;
2542;SDS011;1116;51.502;7.414;2022-12-07T08:59:26;18.27;;;11.07;;
2542;SDS011;1116;51.502;7.414;2022-12-07T09:02:00;16.70;;;10.70;;
2542;SDS011;1116;51.502;7.414;2022-12-07T09:04:34;14.97;;;9.40;;
2542;SDS011;1116;51.502;7.414;2022-12-07T09:07:05;17.00;;;10.80;;
2542;SDS011;1116;51.502;7.414;2022-12-07T09:09:38;19.00;;;10.97;;
2542;SDS011;1116;51.502;7.414;2022-12-07T09:12:09;17.77;;;11.70;;
2542;SDS011;1116;51.502;7.414;2022-12-07T09:14:40;17.93;;;11.60;;
2542;SDS011;1116;51.502;7.414;2022-12-07T09:17:11;17.47;;;11.23;;
2542;SDS011;1116;51.502;7.414;2022-12-07T09:19:44;16.13;;;11.07;;
2542;SDS011;1116;51.502;7.414;2022-12-07T09:22:17;21.80;;;11.97;;
2542;SDS011;1116;51.502;7.414;2022-12-07T09:24:51;17.17;;;11.93;;
2542;SDS011;1116;51.502;7.414;2022-12-07T09:27:22;14.60;;;11.10;;
2542;SDS011;1116;51.502;7.414;2022-12-07T09:29:55;21.67;;;11.20;;
2542;SDS011;1116;51.502;7.414;2022-12-07T09:32:26;21.63;;;10.77;;
2542;SDS011;1116;51.502;7.414;2022-12-07T09:35:00;19.90;;;11.37;;
2542;SDS011;1116;51.502;7.414;2022-12-07T09:37:31;20.80;;;12.17;;
2542;SDS011;1116;51.502;7.414;2022-12-07T09:40:06;15.77;;;11.57;;
2542;SDS011;1116;51.502;7.414;2022-12-07T09:42:38;18.00;;;12.33;;
2542;SDS011;1116;51.502;7.414;2022-12-07T09:45:15;21.67;;;12.03;;
2542;SDS011;1116;51.502;7.414;2022-12-07T09:47:51;15.53;;;11.10;;
2542;SDS011;1116;51.502;7.414;2022-12-07T09:50:23;20.57;;;11.80;;
2542;SDS011;1116;51.502;7.414;2022-12-07T09:53:03;18.73;;;11.90;;
2542;SDS011;1116;51.502;7.414;2022-12-07T09:55:40;20.73;;;12.50;;
2542;SDS011;1116;51.502;7.414;2022-12-07T09:58:16;22.43;;;13.40;;
2542;SDS011;1116;51.502;7.414;2022-12-07T10:00:54;17.90;;;13.43;;
2542;SDS011;1116;51.502;7.414;2022-12-07T10:03:28;23.07;;;14.57;;
2542;SDS011;1116;51.502;7.414;2022-12-07T10:05:59;17.60;;;13.63;;
2542;SDS011;1116;51.502;7.414;2022-12-07T10:08:30;23.07;;;14.90;;
2542;SDS011;1116;51.502;7.414;2022-12-07T10:11:04;25.40;;;14.60;;
2542;SDS011;1116;51.502;7.414;2022-12-07T10:13:38;22.67;;;15.60;;
2542;SDS011;1116;51.502;7.414;2022-12-07T10:16:26;25.23;;;15.33;;
2542;SDS011;1116;51.502;7.414;2022-12-07T10:19:17;23.43;;;16.37;;
2542;SDS011;1116;51.502;7.414;2022-12-07T10:22:01;19.33;;;14.20;;
2542;SDS011;1116;51.502;7.414;2022-12-07T10:24:34;23.93;;;15.07;;
2542;SDS011;1116;51.502;7.414;2022-12-07T10:27:18;21.60;;;15.90;;
2542;SDS011;1116;51.502;7.414;2022-12-07T10:29:53;22.70;;;13.60;;
2542;SDS011;1116;51.502;7.414;2022-12-07T10:32:30;20.20;;;13.83;;
2542;SDS011;1116;51.502;7.414;2022-12-07T10:35:20;20.40;;;14.37;;
2542;SDS011;1116;51.502;7.414;2022-12-07T10:37:54;19.10;;;12.83;;
2542;SDS011;1116;51.502;7.414;2022-12-07T10:40:27;18.13;;;11.63;;
2542;SDS011;1116;51.502;7.414;2022-12-07T10:43:16;19.80;;;12.13;;
2542;SDS011;1116;51.502;7.414;2022-12-07T10:46:08;16.40;;;11.40;;
2542;SDS011;1116;51.502;7.414;2022-12-07T10:49:03;17.67;;;11.00;;
2542;SDS011;1116;51.502;7.414;2022-12-07T10:51:51;15.80;;;10.20;;
2542;SDS011;1116;51.502;7.414;2022-12-07T10:54:32;15.77;;;9.90;;
2542;SDS011;1116;51.502;7.414;2022-12-07T10:57:19;15.57;;;10.07;;
2542;SDS011;1116;51.502;7.414;2022-12-07T11:00:08;18.13;;;11.23;;
2542;SDS011;1116;51.502;7.414;2022-12-07T11:02:56;14.83;;;11.20;;
2542;SDS011;1116;51.502;7.414;2022-12-07T11:05:49;19.00;;;11.17;;
2542;SDS011;1116;51.502;7.414;2022-12-07T11:08:31;14.00;;;9.27;;
2542;SDS011;1116;51.502;7.414;2022-12-07T11:11:16;12.57;;;9.53;;
2542;SDS011;1116;51.502;7.414;2022-12-07T11:13:54;14.47;;;9.30;;
2542;SDS011;1116;51.502;7.414;2022-12-07T11:16:37;14.97;;;9.07;;
2542;SDS011;1116;51.502;7.414;2022-12-07T11:19:21;15.83;;;9.13;;
2542;SDS011;1116;51.502;7.414;2022-12-07T11:22:03;10.23;;;7.67;;
2542;SDS011;1116;51.502;7.414;2022-12-07T11:24:40;13.60;;;8.90;;
2542;SDS011;1116;51.502;7.414;2022-12-07T11:27:21;15.73;;;9.67;;
2542;SDS011;1116;51.502;7.414;2022-12-07T11:30:02;13.03;;;8.87;;
2542;SDS011;1116;51.502;7.414;2022-12-07T11:32:49;17.97;;;9.80;;
2542;SDS011;1116;51.502;7.414;2022-12-07T11:35:32;13.10;;;9.63;;
2542;SDS011;1116;51.502;7.414;2022-12-07T11:38:09;12.47;;;9.10;;
2542;SDS011;1116;51.502;7.414;2022-12-07T11:40:51;15.97;;;9.53;;
2542;SDS011;1116;51.502;7.414;2022-12-07T11:43:44;17.30;;;9.80;;
2542;SDS011;1116;51.502;7.414;2022-12-07T11:46:24;14.13;;;9.33;;
2542;SDS011;1116;51.502;7.414;2022-12-07T11:49:01;17.93;;;9.50;;
2542;SDS011;1116;51.502;7.414;2022-12-07T11:51:38;12.07;;;9.20;;
2542;SDS011;1116;51.502;7.414;2022-12-07T11:54:12;13.97;;;8.73;;
2542;SDS011;1116;51.502;7.414;2022-12-07T11:56:48;13.97;;;8.83;;
2542;SDS011;1116;51.502;7.414;2022-12-07T11:59:27;15.90;;;8.00;;
2542;SDS011;1116;51.502;7.414;2022-12-07T12:02:07;10.40;;;6.60;;
2542;SDS011;1116;51.502;7.414;2022-12-07T12:04:50;13.80;;;8.37;;
2542;SDS011;1116;51.502;7.414;2022-12-07T12:07:25;8.47;;;5.53;;
2542;SDS011;1116;51.502;7.414;2022-12-07T12:10:18;10.70;;;5.87;;
2542;SDS011;1116;51.502;7.414;2022-12-07T12:12:56;13.00;;;6.90;;
2542;SDS011;1116;51.502;7.414;2022-12-07T12:16:12;12.60;;;6.27;;
2542;SDS011;1116;51.502;7.414;2022-12-07T12:19:01;8.90;;;5.60;;
2542;SDS011;1116;51.502;7.414;2022-12-07T12:21:46;9.03;;;5.40;;
2542;SDS011;1116;51.502;7.414;2022-12-07T12:24:25;11.83;;;5.93;;
2542;SDS011;1116;51.502;7.414;2022-12-07T12:27:03;12.30;;;5.37;;
2542;SDS011;1116;51.502;7.414;2022-12-07T12:29:39;12.03;;;5.30;;
2542;SDS011;1116;51.502;7.414;2022-12-07T12:32:13;9.10;;;5.30;;
2542;SDS011;1116;51.502;7.414;2022-12-07T12:37:54;10.03;;;5.77;;
2542;SDS011;1116;51.502;7.414;2022-12-07T12:43:39;10.13;;;6.00;;
2542;SDS011;1116;51.502;7.414;2022-12-07T12:49:30;6.67;;;5.20;;
2542;SDS011;1116;51.502;7.414;2022-12-07T12:58:34;8.20;;;4.53;;
2542;SDS011;1116;51.502;7.414;2022-12-07T13:04:27;10.53;;;4.47;;
2542;SDS011;1116;51.502;7.414;2022-12-07T13:25:18;6.47;;;2.87;;
2542;SDS011;1116;51.502;7.414;2022-12-07T13:28:02;9.70;;;3.20;;
2542;SDS011;1116;51.502;7.414;2022-12-07T13:30:44;6.70;;;3.40;;
2542;SDS011;1116;51.502;7.414;2022-12-07T13:33:23;7.37;;;4.50;;
2542;SDS011;1116;51.502;7.414;2022-12-07T13:36:00;9.77;;;3.80;;
2542;SDS011;1116;51.502;7.414;2022-12-07T13:38:33;5.83;;;3.77;;
2542;SDS011;1116;51.502;7.414;2022-12-07T13:41:12;13.80;;;6.63;;
2542;SDS011;1116;51.502;7.414;2022-12-07T13:43:45;14.33;;;7.03;;
2542;SDS011;1116;51.502;7.414;2022-12-07T13:46:24;13.43;;;4.80;;
2542;SDS011;1116;51.502;7.414;2022-12-07T13:49:15;9.33;;;5.90;;
2542;SDS011;1116;51.502;7.414;2022-12-07T13:51:53;9.27;;;4.60;;
2542;SDS011;1116;51.502;7.414;2022-12-07T13:54:25;11.20;;;5.77;;
2542;SDS011;1116;51.502;7.414;2022-12-07T13:57:00;14.47;;;5.67;;
2542;SDS011;1116;51.502;7.414;2022-12-07T13:59:31;11.27;;;4.00;;
2542;SDS011;1116;51.502;7.414;2022-12-07T14:02:16;6.27;;;4.67;;
2542;SDS011;1116;51.502;7.414;2022-12-07T14:05:06;7.33;;;4.50;;
2542;SDS011;1116;51.502;7.414;2022-12-07T14:07:48;9.30;;;4.53;;
2542;SDS011;1116;51.502;7.414;2022-12-07T14:10:25;7.93;;;5.00;;
2542;SDS011;1116;51.502;7.414;2022-12-07T14:12:59;9.20;;;3.50;;
2542;SDS011;1116;51.502;7.414;2022-12-07T14:15:52;10.10;;;4.03;;
2542;SDS011;1116;51.502;7.414;2022-12-07T14:18:29;7.60;;;3.97;;
2542;SDS011;1116;51.502;7.414;2022-12-07T14:21:13;7.37;;;4.10;;
2542;SDS011;1116;51.502;7.414;2022-12-07T14:26:49;6.77;;;3.80;;
2542;SDS011;1116;51.502;7.414;2022-12-07T14:29:22;13.70;;;4.30;;
2542;SDS011;1116;51.502;7.414;2022-12-07T14:32:14;6.73;;;4.10;;
2542;SDS011;1116;51.502;7.414;2022-12-07T14:34:59;4.43;;;4.00;;
2542;SDS011;1116;51.502;7.414;2022-12-07T14:37:35;4.23;;;3.57;;
2542;SDS011;1116;51.502;7.414;2022-12-07T14:40:07;6.50;;;3.63;;
2542;SDS011;1116;51.502;7.414;2022-12-07T14:42:46;5.90;;;3.90;;
2542;SDS011;1116;51.502;7.414;2022-12-07T14:45:21;4.73;;;4.07;;
2542;SDS011;1116;51.502;7.414;2022-12-07T14:47:53;4.43;;;3.97;;
2542;SDS011;1116;51.502;7.414;2022-12-07T14:50:48;4.50;;;3.90;;
2542;SDS011;1116;51.502;7.414;2022-12-07T14:53:44;4.10;;;3.60;;
2542;SDS011;1116;51.502;7.414;2022-12-07T14:56:25;6.13;;;3.47;;
2542;SDS011;1116;51.502;7.414;2022-12-07T14:58:57;5.40;;;3.70;;
2542;SDS011;1116;51.502;7.414;2022-12-07T15:01:28;5.73;;;4.23;;
2542;SDS011;1116;51.502;7.414;2022-12-07T15:03:59;5.87;;;4.10;;
2542;SDS011;1116;51.502;7.414;2022-12-07T15:06:33;4.97;;;4.20;;
2542;SDS011;1116;51.502;7.414;2022-12-07T15:09:04;6.20;;;4.80;;
2542;SDS011;1116;51.502;7.414;2022-12-07T15:11:36;8.17;;;4.70;;
2542;SDS011;1116;51.502;7.414;2022-12-07T15:14:11;6.20;;;4.40;;
2542;SDS011;1116;51.502;7.414;2022-12-07T15:16:45;6.03;;;4.63;;
2542;SDS011;1116;51.502;7.414;2022-12-07T15:19:35;8.37;;;4.33;;
2542;SDS011;1116;51.502;7.414;2022-12-07T15:22:14;12.33;;;8.17;;
2542;SDS011;1116;51.502;7.414;2022-12-07T15:24:45;8.93;;;5.53;;
2542;SDS011;1116;51.502;7.414;2022-12-07T15:27:16;11.00;;;6.60;;
2542;SDS011;1116;51.502;7.414;2022-12-07T15:29:47;7.87;;;5.07;;
2542;SDS011;1116;51.502;7.414;2022-12-07T15:32:21;6.10;;;4.80;;
2542;SDS011;1116;51.502;7.414;2022-12-07T15:34:55;66.30;;;37.57;;
2542;SDS011;1116;51.502;7.414;2022-12-07T15:37:31;7.43;;;5.53;;
2542;SDS011;1116;51.502;7.414;2022-12-07T15:40:02;12.47;;;7.90;;
2542;SDS011;1116;51.502;7.414;2022-12-07T15:42:35;24.53;;;13.73;;
2542;SDS011;1116;51.502;7.414;2022-12-07T15:45:06;12.20;;;7.20;;
2542;SDS011;1116;51.502;7.414;2022-12-07T15:47:37;19.07;;;11.40;;
2542;SDS011;1116;51.502;7.414;2022-12-07T15:50:34;15.03;;;9.27;;
2542;SDS011;1116;51.502;7.414;2022-12-07T15:53:08;17.50;;;11.90;;
2542;SDS011;1116;51.502;7.414;2022-12-07T15:55:41;32.87;;;19.00;;
2542;SDS011;1116;51.502;7.414;2022-12-07T15:58:18;28.10;;;18.37;;
2542;SDS011;1116;51.502;7.414;2022-12-07T16:00:52;23.90;;;18.43;;
2542;SDS011;1116;51.502;7.414;2022-12-07T16:03:23;16.37;;;14.60;;
2542;SDS011;1116;51.502;7.414;2022-12-07T16:05:56;16.80;;;9.80;;
2542;SDS011;1116;51.502;7.414;2022-12-07T16:08:31;17.90;;;10.63;;
2542;SDS011;1116;51.502;7.414;2022-12-07T16:11:04;16.30;;;8.40;;
2542;SDS011;1116;51.502;7.414;2022-12-07T16:13:36;15.20;;;9.30;;
2542;SDS011;1116;51.502;7.414;2022-12-07T16:16:07;12.50;;;9.23;;
2542;SDS011;1116;51.502;7.414;2022-12-07T16:18:48;13.57;;;8.87;;
2542;SDS011;1116;51.502;7.414;2022-12-07T16:21:20;13.30;;;8.77;;
2542;SDS011;1116;51.502;7.414;2022-12-07T16:23:56;11.77;;;8.80;;
2542;SDS011;1116;51.502;7.414;2022-12-07T16:26:27;10.57;;;7.97;;